Time;durP1;ratioP1;P1;durP2;ratioP2;P2;SDS_P1;SDS_P2;PMS_P1;PMS_P2;Temp;Humidity;BMP_temperature;BMP_pressure;BME280_temperature;BME280_humidity;BME280_pressure;Samples;Min_cycle;Max_cycle;Signal;HPM_P1;HPM_P2
2022/05/24 00:02:11;;;;;;;2.70;2.00;;;;;;;;;;5071599;28;20380;-82
2022/05/24 00:04:37;;;;;;;6.93;2.00;;;;;;;;;;5071569;28;20466;-82
2022/05/24 00:07:03;;;;;;;3.70;2.13;;;;;;;;;;5071480;28;20406;-83
2022/05/24 00:09:29;;;;;;;5.00;2.20;;;;;;;;;;5063147;28;20458;-82
2022/05/24 00:11:55;;;;;;;4.00;2.35;;;;;;;;;;5067857;28;20387;-82
2022/05/24 00:17:07;;;;;;;5.63;2.40;;;;;;;;;;5071718;28;20375;-83
2022/05/24 00:19:34;;;;;;;3.72;2.60;;;;;;;;;;5068536;28;20467;-83
2022/05/24 00:22:00;;;;;;;3.90;2.20;;;;;;;;;;5071284;28;20848;-83
2022/05/24 00:24:26;;;;;;;3.92;2.05;;;;;;;;;;5073252;28;20386;-82
2022/05/24 00:26:52;;;;;;;2.83;1.90;;;;;;;;;;5074787;28;20376;-82
2022/05/24 00:29:18;;;;;;;2.92;1.80;;;;;;;;;;5074758;28;20906;-83
2022/05/24 00:31:44;;;;;;;5.53;1.80;;;;;;;;;;5067609;28;20399;-83
2022/05/24 00:34:10;;;;;;;2.97;2.20;;;;;;;;;;5074782;28;20445;-83
2022/05/24 00:36:36;;;;;;;4.28;2.53;;;;;;;;;;5056662;28;20398;-83
2022/05/24 00:39:02;;;;;;;4.38;2.50;;;;;;;;;;5058181;28;20468;-83
2022/05/24 00:41:31;;;;;;;3.38;2.70;;;;;;;;;;5057880;28;20403;-83
2022/05/24 00:44:03;;;;;;;7.00;2.80;;;;;;;;;;5067946;28;20407;-83
2022/05/24 00:46:35;;;;;;;5.55;2.58;;;;;;;;;;5048419;28;20372;-82
2022/05/24 00:49:04;;;;;;;3.97;2.43;;;;;;;;;;5069996;28;20542;-83
2022/05/24 00:51:40;;;;;;;4.70;3.00;;;;;;;;;;5046356;28;20394;-83
2022/05/24 00:54:06;;;;;;;9.00;3.43;;;;;;;;;;5072178;28;20757;-83
2022/05/24 00:56:38;;;;;;;3.45;2.83;;;;;;;;;;5053234;28;20443;-82
2022/05/24 00:59:06;;;;;;;7.53;2.50;;;;;;;;;;5051839;28;20397;-82
2022/05/24 01:01:34;;;;;;;3.78;2.30;;;;;;;;;;5066826;28;20742;-83
2022/05/24 01:04:01;;;;;;;5.28;2.60;;;;;;;;;;5064609;28;20388;-82
2022/05/24 01:06:27;;;;;;;3.05;2.10;;;;;;;;;;5067329;28;20426;-83
2022/05/24 01:08:54;;;;;;;4.97;2.07;;;;;;;;;;5056080;28;20945;-83
2022/05/24 01:11:21;;;;;;;3.13;2.10;;;;;;;;;;5074052;28;20446;-82
2022/05/24 01:13:47;;;;;;;3.10;1.70;;;;;;;;;;5066347;28;20421;-83
2022/05/24 01:16:13;;;;;;;2.47;1.70;;;;;;;;;;5054173;28;20447;-82
2022/05/24 01:18:40;;;;;;;3.88;2.30;;;;;;;;;;5069796;28;20383;-83
2022/05/24 01:21:10;;;;;;;5.70;3.00;;;;;;;;;;5073851;28;20452;-82
2022/05/24 01:23:42;;;;;;;5.10;2.78;;;;;;;;;;5074219;28;20455;-82
2022/05/24 01:26:18;;;;;;;2.72;2.38;;;;;;;;;;5073953;28;20888;-83
2022/05/24 01:28:50;;;;;;;2.95;2.40;;;;;;;;;;5073554;28;20376;-83
2022/05/24 01:31:17;;;;;;;3.83;2.13;;;;;;;;;;5073684;28;20387;-83
2022/05/24 01:36:29;;;;;;;4.13;2.70;;;;;;;;;;5074053;28;20455;-82
2022/05/24 01:39:00;;;;;;;2.78;2.20;;;;;;;;;;5073474;28;20419;-83
2022/05/24 01:41:30;;;;;;;3.83;2.20;;;;;;;;;;5069986;28;20777;-83
2022/05/24 01:43:57;;;;;;;3.25;2.30;;;;;;;;;;5061139;28;20410;-83
2022/05/24 01:46:43;;;;;;;2.90;1.80;;;;;;;;;;5045494;28;20386;-83
2022/05/24 01:49:20;;;;;;;3.70;2.13;;;;;;;;;;5055253;28;20894;-83
2022/05/24 01:51:49;;;;;;;4.22;2.20;;;;;;;;;;5073594;28;20402;-82
2022/05/24 01:54:15;;;;;;;3.15;2.00;;;;;;;;;;5073178;28;20380;-83
2022/05/24 01:57:01;;;;;;;3.47;2.30;;;;;;;;;;5073106;28;20995;-82
2022/05/24 01:59:28;;;;;;;4.90;3.03;;;;;;;;;;5055272;28;20846;-82
2022/05/24 02:01:55;;;;;;;3.15;2.38;;;;;;;;;;5072901;28;20403;-82
2022/05/24 02:04:23;;;;;;;3.28;2.40;;;;;;;;;;5073729;28;20380;-83
2022/05/24 02:07:03;;;;;;;5.20;2.50;;;;;;;;;;5072945;28;20383;-83
2022/05/24 02:09:29;;;;;;;3.67;2.53;;;;;;;;;;5072968;28;20938;-82
2022/05/24 02:11:58;;;;;;;4.07;2.40;;;;;;;;;;5072705;28;20376;-83
2022/05/24 02:14:27;;;;;;;2.00;1.90;;;;;;;;;;5047070;28;20527;-82
2022/05/24 02:16:55;;;;;;;2.20;1.77;;;;;;;;;;5056169;28;20396;-83
2022/05/24 02:19:23;;;;;;;3.70;1.95;;;;;;;;;;5070890;28;20482;-83
2022/05/24 02:21:53;;;;;;;2.55;1.75;;;;;;;;;;5070883;28;20403;-83
2022/05/24 02:24:23;;;;;;;4.07;2.78;;;;;;;;;;5072079;28;20462;-82
2022/05/24 02:26:50;;;;;;;4.28;2.78;;;;;;;;;;5072549;28;20787;-82
2022/05/24 02:29:16;;;;;;;3.58;2.17;;;;;;;;;;5071748;28;20380;-83
2022/05/24 02:31:43;;;;;;;2.90;1.90;;;;;;;;;;5072543;28;20940;-82
2022/05/24 02:34:09;;;;;;;4.45;2.22;;;;;;;;;;5072516;28;20391;-82
2022/05/24 02:36:35;;;;;;;2.08;1.80;;;;;;;;;;5072418;28;20386;-83
2022/05/24 02:39:01;;;;;;;4.22;2.08;;;;;;;;;;5056935;28;20370;-83
2022/05/24 02:41:36;;;;;;;4.63;2.50;;;;;;;;;;5068523;28;20556;-83
2022/05/24 02:44:04;;;;;;;4.63;2.47;;;;;;;;;;5061585;28;20403;-83
2022/05/24 02:46:31;;;;;;;6.78;3.60;;;;;;;;;;5071798;28;20742;-82
2022/05/24 02:48:57;;;;;;;6.57;3.38;;;;;;;;;;5067575;28;20373;-83
2022/05/24 02:51:23;;;;;;;4.07;2.70;;;;;;;;;;5057344;28;20376;-83
2022/05/24 02:53:49;;;;;;;4.57;2.50;;;;;;;;;;5072329;28;20461;-82
2022/05/24 02:56:15;;;;;;;2.83;2.40;;;;;;;;;;5072076;28;20375;-83
2022/05/24 02:58:43;;;;;;;3.33;2.45;;;;;;;;;;5071855;28;20406;-83
2022/05/24 03:01:18;;;;;;;4.20;2.55;;;;;;;;;;5072139;28;20418;-83
2022/05/24 03:03:44;;;;;;;7.03;2.60;;;;;;;;;;5066896;28;20373;-83
2022/05/24 03:06:10;;;;;;;4.35;2.85;;;;;;;;;;5063223;28;20387;-83
2022/05/24 03:11:23;;;;;;;3.13;2.37;;;;;;;;;;5051496;28;20795;-82
2022/05/24 03:16:33;;;;;;;4.63;2.65;;;15.30;99.90;;;;;;5072115;28;20433;-83
2022/05/24 03:18:59;;;;;;;3.80;2.47;;;15.10;99.90;;;;;;5071995;28;20392;-83
2022/05/24 03:21:25;;;;;;;3.60;2.20;;;15.30;99.90;;;;;;5071831;28;20873;-83
2022/05/24 03:23:50;;;;;;;4.30;2.95;;;15.40;99.90;;;;;;5053892;28;20395;-83
2022/05/24 03:26:16;;;;;;;4.38;2.90;;;15.10;99.90;;;;;;5071999;28;20422;-82
2022/05/24 03:28:42;;;;;;;3.70;2.42;;;15.10;99.90;;;;;;5071631;28;20441;-83
2022/05/24 03:31:08;;;;;;;3.88;2.50;;;15.10;99.90;;;;;;5071937;28;20872;-83
2022/05/24 03:33:34;;;;;;;3.60;2.70;;;15.20;99.90;;;;;;5071779;28;20449;-83
2022/05/24 03:36:00;;;;;;;3.80;2.17;;;15.20;99.90;;;;;;5071785;28;20380;-83
2022/05/24 03:38:27;;;;;;;3.55;2.58;;;15.20;99.90;;;;;;5072160;28;20394;-83
2022/05/24 03:40:52;;;;;;;2.83;2.20;;;15.40;99.90;;;;;;5071705;28;20400;-83
2022/05/24 03:43:18;;;;;;;3.22;2.22;;;15.70;99.90;;;;;;5054217;28;20931;-83
2022/05/24 03:45:44;;;;;;;2.10;1.80;;;15.50;99.90;;;;;;5071763;28;20376;-83
2022/05/24 03:48:09;;;;;;;4.57;2.00;;;15.60;99.90;;;;;;5071968;28;20387;-83
2022/05/24 03:50:35;;;;;;;3.47;2.20;;;;;;;;;;5071795;28;20391;-83
2022/05/24 03:53:01;;;;;;;2.75;1.95;;;;;;;;;;5071644;28;20388;-83
2022/05/24 03:55:27;;;;;;;2.83;2.20;;;;;;;;;;5071617;28;21015;-83
2022/05/24 03:58:00;;;;;;;4.28;2.05;;;;;;;;;;5071509;28;20916;-83
2022/05/24 04:00:28;;;;;;;2.78;1.90;;;;;;;;;;5075027;28;20624;-83
2022/05/24 04:02:54;;;;;;;3.22;2.05;;;;;;;;;;5075272;28;20376;-83
2022/05/24 04:05:20;;;;;;;3.10;1.90;;;;;;;;;;5075334;28;20467;-83
2022/05/24 04:07:46;;;;;;;3.70;2.00;;;;;;;;;;5075285;28;20906;-83
2022/05/24 04:10:13;;;;;;;4.20;2.10;;;;;;;;;;5073724;28;20449;-83
2022/05/24 04:12:39;;;;;;;3.47;2.00;;;;;;;;;;5056673;28;20873;-83
2022/05/24 04:15:05;;;;;;;3.05;1.88;;;;;;;;;;5075046;28;20390;-83
2022/05/24 04:17:31;;;;;;;2.55;1.83;;;;;;;;;;5064455;28;20828;-83
2022/05/24 04:19:57;;;;;;;4.15;1.80;;;;;;;;;;5075003;28;20411;-83
2022/05/24 04:22:23;;;;;;;3.22;1.80;;;;;;;;;;5074960;28;20459;-83
2022/05/24 04:24:49;;;;;;;2.75;1.80;;;16.40;99.90;;;;;;5074228;28;20398;-83
2022/05/24 04:27:14;;;;;;;2.97;2.00;;;16.20;99.90;;;;;;5074779;28;20921;-83
2022/05/24 04:29:42;;;;;;;2.67;1.87;;;16.20;99.90;;;;;;5074996;28;20387;-83
2022/05/24 04:32:10;;;;;;;2.27;1.70;;;16.10;99.90;;;;;;5074827;28;20382;-83
2022/05/24 04:34:37;;;;;;;3.72;1.80;;;16.10;99.90;;;;;;5075011;28;20486;-83
2022/05/24 04:37:07;;;;;;;5.78;2.20;;;16.20;99.90;;;;;;5074849;28;20376;-83
2022/05/24 04:39:32;;;;;;;3.10;1.77;;;16.30;99.90;;;;;;5070925;28;20395;-83
2022/05/24 04:44:43;;;;;;;3.53;1.77;;;16.30;99.90;;;;;;5066708;28;20371;-84
2022/05/24 04:47:09;;;;;;;3.65;1.63;;;;;;;;;;5076432;28;20388;-83
2022/05/24 04:49:46;;;;;;;2.58;1.70;;;;;;;;;;5074571;28;20857;-83
2022/05/24 04:52:13;;;;;;;5.03;1.77;;;;;;;;;;5074735;28;20372;-83
2022/05/24 04:54:40;;;;;;;2.80;1.60;;;16.00;99.90;;;;;;5073132;28;20412;-83
2022/05/24 04:57:09;;;;;;;3.00;1.63;;;;;;;;;;5070711;28;20393;-83
2022/05/24 04:59:35;;;;;;;3.13;1.70;;;15.80;99.90;;;;;;5046835;28;20421;-83
2022/05/24 05:02:01;;;;;;;3.70;2.10;;;15.80;99.90;;;;;;5048747;28;20480;-83
2022/05/24 05:04:27;;;;;;;2.40;1.52;;;15.20;99.90;;;;;;5049644;28;20390;-83
2022/05/24 05:06:53;;;;;;;3.50;1.58;;;15.20;99.90;;;;;;5054889;28;20392;-84
2022/05/24 05:09:19;;;;;;;2.53;1.77;;;15.60;99.90;;;;;;5051604;28;20401;-83
2022/05/24 05:11:45;;;;;;;2.38;2.00;;;15.20;99.90;;;;;;5049696;28;20388;-83
2022/05/24 05:14:13;;;;;;;2.08;1.60;;;15.40;99.90;;;;;;5063334;28;20387;-83
2022/05/24 05:16:40;;;;;;;2.07;1.60;;;;;;;;;;5052106;28;20476;-83
2022/05/24 05:19:09;;;;;;;3.28;1.63;;;;;;;;;;5058841;28;20375;-83
2022/05/24 05:21:38;;;;;;;3.45;1.67;;;;;;;;;;5066049;28;20416;-83
2022/05/24 05:24:05;;;;;;;2.28;1.52;;;;;;;;;;5054247;28;20952;-83
2022/05/24 05:26:33;;;;;;;2.95;1.60;;;;;;;;;;5073961;28;20380;-83
2022/05/24 05:28:59;;;;;;;2.50;1.45;;;;;;;;;;5045865;28;20932;-83
2022/05/24 05:31:27;;;;;;;3.10;1.50;;;;;;;;;;5073753;28;20388;-83
2022/05/24 05:33:54;;;;;;;4.93;2.00;;;;;;;;;;5059489;28;20421;-83
2022/05/24 05:36:20;;;;;;;2.20;1.58;;;;;;;;;;5041907;28;20398;-84
2022/05/24 05:38:47;;;;;;;4.30;1.93;;;;;;;;;;5032639;28;20397;-84
2022/05/24 05:41:18;;;;;;;3.13;1.80;;;;;;;;;;5037017;28;20418;-84
2022/05/24 05:43:44;;;;;;;3.53;1.60;;;;;;;;;;5039318;28;20388;-84
2022/05/24 05:46:13;;;;;;;2.28;1.48;;;;;;;;;;5039512;28;20435;-84
2022/05/24 05:48:39;;;;;;;2.72;1.60;;;;;;;;;;5044086;28;20394;-84
2022/05/24 05:51:08;;;;;;;3.70;1.95;;;;;;;;;;5067118;28;20392;-84
2022/05/24 05:53:36;;;;;;;3.10;1.88;;;;;;;;;;5073313;28;20471;-84
2022/05/24 05:56:05;;;;;;;3.03;1.40;;;;;;;;;;5068630;28;20468;-83
2022/05/24 05:58:33;;;;;;;2.75;1.42;;;;;;;;;;5070831;28;20482;-84
2022/05/24 06:01:00;;;;;;;3.28;1.38;;;;;;;;;;5065005;28;20441;-83
2022/05/24 06:03:26;;;;;;;3.90;1.58;;;;;;;;;;5069495;28;20383;-83
2022/05/24 06:05:53;;;;;;;2.22;1.45;;;;;;;;;;5073098;28;20384;-83
2022/05/24 06:08:19;;;;;;;3.50;1.75;;;;;;;;;;5072943;28;20372;-84
2022/05/24 06:10:45;;;;;;;1.90;1.30;;;;;;;;;;5073143;28;20384;-83
2022/05/24 06:13:11;;;;;;;2.90;1.73;;;;;;;;;;5057356;28;20398;-83
2022/05/24 06:15:37;;;;;;;3.97;1.27;;;;;;;;;;5053434;28;20441;-83
2022/05/24 06:18:04;;;;;;;2.25;1.67;;;;;;;;;;5036936;28;20413;-84
2022/05/24 06:20:31;;;;;;;4.53;1.45;;;;;;;;;;5040038;28;20446;-84
2022/05/24 06:22:57;;;;;;;2.50;1.60;;;;;;;;;;5034545;28;20383;-84
2022/05/24 06:25:24;;;;;;;2.50;1.30;;;;;;;;;;5036817;28;20402;-84
2022/05/24 06:27:51;;;;;;;3.25;1.63;;;;;;;;;;5033308;28;20372;-84
2022/05/24 06:30:20;;;;;;;2.53;1.30;;;;;;;;;;5033155;28;20458;-84
2022/05/24 06:32:48;;;;;;;2.70;1.40;;;16.20;99.90;;;;;;5048010;28;20470;-83
2022/05/24 06:35:16;;;;;;;3.30;1.67;;;;;;;;;;5033503;28;20778;-82
2022/05/24 06:37:42;;;;;;;4.28;1.40;;;;;;;;;;5034019;28;20375;-82
2022/05/24 06:40:10;;;;;;;3.63;1.60;;;;;;;;;;5035833;28;20418;-82
2022/05/24 06:42:36;;;;;;;2.95;1.65;;;;;;;;;;5057362;28;20407;-81
2022/05/24 06:45:02;;;;;;;3.35;1.60;;;;;;;;;;5063981;28;20422;-81
2022/05/24 06:47:28;;;;;;;2.17;1.50;;;;;;;;;;5072378;28;20380;-82
2022/05/24 06:49:55;;;;;;;2.42;1.65;;;;;;;;;;5072401;28;20417;-82
2022/05/24 06:52:21;;;;;;;2.47;1.55;;;;;;;;;;5059323;28;20392;-82
2022/05/24 06:54:48;;;;;;;2.67;1.60;;;;;;;;;;5071558;28;20376;-82
2022/05/24 06:57:13;;;;;;;3.17;1.70;;;;;;;;;;5072345;28;20375;-82
2022/05/24 07:02:27;;;;;;;3.15;1.40;;;;;;;;;;5062094;28;20460;-82
2022/05/24 07:04:56;;;;;;;4.30;1.30;;;;;;;;;;5052551;28;20404;-82
2022/05/24 07:07:22;;;;;;;3.40;1.30;;;;;;;;;;5069482;28;20376;-82
2022/05/24 07:09:48;;;;;;;3.55;1.50;;;;;;;;;;5052062;28;20447;-81
2022/05/24 07:12:17;;;;;;;2.25;1.10;;;;;;;;;;5065912;28;20371;-81
2022/05/24 07:14:43;;;;;;;3.40;1.05;;;;;;;;;;5056296;28;20402;-81
2022/05/24 07:17:09;;;;;;;2.88;1.20;;;;;;;;;;5043232;28;20376;-81
2022/05/24 07:19:35;;;;;;;2.90;1.33;;;;;;;;;;5058796;28;20392;-81
2022/05/24 07:22:01;;;;;;;2.28;1.10;;;;;;;;;;5047016;28;20448;-81
2022/05/24 07:24:28;;;;;;;1.20;0.97;;;;;;;;;;5072028;28;20764;-81
2022/05/24 07:26:54;;;;;;;3.22;1.00;;;;;;;;;;5072253;28;20407;-81
2022/05/24 07:29:20;;;;;;;2.05;0.73;;;;;;;;;;5068077;28;20376;-81
2022/05/24 07:31:46;;;;;;;1.20;0.87;;;;;;;;;;5054041;28;20477;-81
2022/05/24 07:34:12;;;;;;;2.70;0.82;;;;;;;;;;5069431;28;20385;-81
2022/05/24 07:36:38;;;;;;;1.90;0.60;;;;;;;;;;5065257;28;20943;-81
2022/05/24 07:39:04;;;;;;;1.92;0.60;;;;;;;;;;5071734;28;20387;-81
2022/05/24 07:47:00;;;;;;;0.98;0.30;;;;;;;;;;5065643;28;20733;-81
2022/05/24 07:49:26;;;;;;;1.83;0.50;;;;;;;;;;5075961;28;20372;-82
2022/05/24 07:51:52;;;;;;;2.70;0.47;;;;;;;;;;5069948;28;20403;-81
2022/05/24 07:54:18;;;;;;;2.60;0.40;;;;;;;;;;5075227;28;20876;-82
2022/05/24 07:56:44;;;;;;;1.15;0.30;;;;;;;;;;5062029;28;20490;-82
2022/05/24 07:59:10;;;;;;;0.63;0.43;;;;;;;;;;5068454;28;20882;-81
2022/05/24 08:01:37;;;;;;;1.35;0.30;;;;;;;;;;5044477;28;20450;-82
2022/05/24 08:04:03;;;;;;;0.70;0.30;;;;;;;;;;5061794;28;20386;-82
2022/05/24 08:06:29;;;;;;;2.75;0.30;;;15.50;99.90;;;;;;5044702;28;20393;-82
2022/05/24 08:08:55;;;;;;;3.00;0.30;;;15.60;99.90;;;;;;5060669;28;20391;-82
2022/05/24 08:11:20;;;;;;;1.00;0.30;;;15.60;99.90;;;;;;5058212;28;20388;-81
2022/05/24 08:13:46;;;;;;;0.82;0.20;;;15.40;99.90;;;;;;5075270;28;20387;-82
2022/05/24 08:16:12;;;;;;;1.30;0.30;;;15.50;99.90;;;;;;5073378;28;20403;-82
2022/05/24 08:18:38;;;;;;;0.80;0.20;;;15.60;99.90;;;;;;5075265;28;20375;-82
2022/05/24 08:21:04;;;;;;;1.00;0.30;;;15.40;99.90;;;;;;5057116;28;20411;-82
2022/05/24 08:23:30;;;;;;;1.05;0.10;;;15.50;99.90;;;;;;5075131;28;20467;-82
2022/05/24 08:25:56;;;;;;;0.50;0.10;;;15.50;99.90;;;;;;5063325;28;20414;-82
2022/05/24 08:28:22;;;;;;;1.10;0.10;;;15.40;99.90;;;;;;5066756;28;20741;-82
2022/05/24 08:30:50;;;;;;;1.00;0.10;;;15.40;99.90;;;;;;5074821;28;20400;-82
2022/05/24 08:33:16;;;;;;;1.35;0.10;;;15.40;99.90;;;;;;5074747;28;20527;-82
2022/05/24 08:35:43;;;;;;;1.80;0.10;;;15.40;99.90;;;;;;5058311;28;20429;-82
2022/05/24 08:38:09;;;;;;;1.70;0.10;;;15.40;99.90;;;;;;5075137;28;20880;-82
2022/05/24 08:40:37;;;;;;;1.10;0.20;;;15.40;99.90;;;;;;5074731;28;22405;-82
2022/05/24 08:43:05;;;;;;;0.10;0.10;;;15.50;99.90;;;;;;5057299;28;20388;-82
2022/05/24 08:48:26;;;;;;;0.25;0.10;;;15.80;99.90;;;;;;5074899;28;20767;-82
2022/05/24 08:50:58;;;;;;;0.10;0.10;;;15.80;99.90;;;;;;5059458;28;20476;-82
2022/05/24 08:53:46;;;;;;;0.80;0.10;;;15.80;99.90;;;;;;5074586;28;20876;-82
2022/05/24 08:56:17;;;;;;;0.80;0.10;;;15.90;99.90;;;;;;5069891;28;20486;-82
2022/05/24 08:58:48;;;;;;;1.00;0.30;;;16.10;99.90;;;;;;5074289;28;20489;-82
2022/05/24 09:01:32;;;;;;;0.40;0.13;;;16.20;99.90;;;;;;5037107;28;20782;-83
2022/05/24 09:03:59;;;;;;;0.57;0.28;;;16.10;99.90;;;;;;5048537;28;20767;-82
2022/05/24 09:06:51;;;;;;;0.50;0.13;;;16.00;99.90;;;;;;5074689;28;20383;-82
2022/05/24 09:09:26;;;;;;;0.43;0.17;;;15.90;99.90;;;;;;5069216;28;20387;-82
2022/05/24 09:12:35;;;;;;;1.98;0.25;;;15.90;99.90;;;;;;5065475;28;20404;-82
2022/05/24 09:15:22;;;;;;;1.25;0.40;;;15.80;99.90;;;;;;5067973;28;20462;-83
2022/05/24 09:18:20;;;;;;;1.20;0.40;;;16.00;99.90;;;;;;5074128;28;20383;-83
2022/05/24 09:20:46;;;;;;;0.82;0.47;;;16.10;99.90;;;;;;5073984;28;20435;-82
2022/05/24 09:23:34;;;;;;;0.68;0.30;;;16.40;99.90;;;;;;5073976;28;20470;-83
2022/05/24 09:26:05;;;;;;;1.70;0.40;;;16.30;99.90;;;;;;5065542;28;20458;-82
2022/05/24 09:28:58;;;;;;;1.73;0.40;;;16.20;99.90;;;;;;5073995;28;20391;-83
2022/05/24 09:31:44;;;;;;;1.00;0.38;;;16.20;99.90;;;;;;5073819;28;20856;-83
2022/05/24 09:34:19;;;;;;;1.80;0.50;;;16.30;99.90;;;;;;5073177;28;20494;-83
2022/05/24 09:36:58;;;;;;;1.25;0.52;;;;;;;;;;5073752;28;20383;-83
2022/05/24 09:39:27;;;;;;;1.63;0.90;;;16.20;99.90;;;;;;5073895;28;20441;-83
2022/05/24 09:42:12;;;;;;;1.88;1.15;;;16.30;99.90;;;;;;5062388;28;20486;-82
2022/05/24 09:44:51;;;;;;;2.20;1.00;;;16.30;99.90;;;;;;5073290;28;20396;-83
2022/05/24 09:47:21;;;;;;;2.15;1.17;;;;;;;;;;5073542;28;20387;-83
2022/05/24 09:49:47;;;;;;;2.60;0.60;;;;;;;;;;5073412;28;20375;-83
2022/05/24 09:52:16;;;;;;;1.98;0.63;;;;;;;;;;5073383;28;20453;-83
2022/05/24 09:54:56;;;;;;;1.83;0.50;;;;;;;;;;5069749;28;20465;-83
2022/05/24 09:57:23;;;;;;;0.60;0.40;;;;;;;;;;5073266;28;20474;-83
2022/05/24 10:00:20;;;;;;;0.95;0.30;;;;;;;;;;5073064;28;20876;-83
2022/05/24 10:02:47;;;;;;;1.67;0.50;;;;;;;;;;5049725;28;20403;-83
2022/05/24 10:05:17;;;;;;;1.48;0.50;;;;;;;;;;5073062;28;20376;-83
2022/05/24 10:07:54;;;;;;;2.17;0.50;;;;;;;;;;5076625;28;20736;-83
2022/05/24 10:10:22;;;;;;;1.92;0.50;;;;;;;;;;5059455;28;20380;-83
2022/05/24 10:13:04;;;;;;;1.92;0.50;;;;;;;;;;5073056;28;20383;-83
2022/05/24 10:15:33;;;;;;;1.50;0.60;;;;;;;;;;5054930;28;20784;-83
2022/05/24 10:18:02;;;;;;;0.93;0.60;;;;;;;;;;5072809;28;20391;-83
2022/05/24 10:20:39;;;;;;;1.42;0.70;;;;;;;;;;5072497;28;20386;-83
2022/05/24 10:23:05;;;;;;;0.85;0.50;;;;;;;;;;5048772;28;20934;-82
2022/05/24 10:25:48;;;;;;;1.50;0.50;;;15.70;99.90;;;;;;5045427;28;20529;-83
2022/05/24 10:28:39;;;;;;;1.43;0.63;;;15.60;99.90;;;;;;5070783;28;20384;-85
2022/05/24 10:31:39;;;;;;;1.25;0.52;;;15.60;99.90;;;;;;5049075;28;20385;-83
2022/05/24 10:40:33;;;;;;;1.88;0.70;;;16.10;99.90;;;;;;5059889;28;20398;-83
2022/05/24 10:43:12;;;;;;;1.80;0.60;;;16.00;99.90;;;;;;5055104;28;20407;-83
2022/05/24 10:45:50;;;;;;;1.67;0.65;;;16.00;99.90;;;;;;5072492;28;20732;-83
2022/05/24 10:48:23;;;;;;;1.40;0.60;;;16.10;99.90;;;;;;5072667;28;20398;-83
2022/05/24 10:51:00;;;;;;;1.33;0.40;;;16.20;99.90;;;;;;5072388;28;20445;-83
2022/05/24 10:53:39;;;;;;;1.67;0.45;;;16.00;99.90;;;;;;5056486;28;20393;-83
2022/05/24 10:56:13;;;;;;;2.05;0.57;;;16.10;99.90;;;;;;5062643;28;20423;-83
2022/05/24 10:58:42;;;;;;;2.25;0.73;;;16.20;99.90;;;;;;5071331;28;20956;-83
2022/05/24 11:01:17;;;;;;;1.00;0.43;;;15.90;99.90;;;;;;5045620;28;20916;-83
2022/05/24 11:03:45;;;;;;;1.60;0.50;;;;;;;;;;5052002;28;20416;-83
2022/05/24 11:06:19;;;;;;;1.42;0.52;;;;;;;;;;5063544;28;20771;-83
2022/05/24 11:08:51;;;;;;;1.13;0.45;;;;;;;;;;5051942;28;20429;-83
2022/05/24 11:11:36;;;;;;;1.05;0.68;;;;;;;;;;5072031;28;20391;-83
2022/05/24 11:14:19;;;;;;;1.60;0.70;;;;;;;;;;5049994;28;20425;-84
2022/05/24 11:16:48;;;;;;;0.50;0.40;;;;;;;;;;5044164;28;20383;-83
2022/05/24 11:19:14;;;;;;;1.38;0.40;;;;;;;;;;5038486;28;20391;-83
2022/05/24 11:21:43;;;;;;;2.28;0.55;;;;;;;;;;5041478;28;20414;-83
2022/05/24 11:24:14;;;;;;;1.60;0.47;;;;;;;;;;5044624;28;20382;-82
2022/05/24 11:26:47;;;;;;;0.90;0.50;;;;;;;;;;5065676;28;20406;-83
2022/05/24 11:29:31;;;;;;;1.25;0.47;;;;;;;;;;5069495;28;20380;-83
2022/05/24 11:32:06;;;;;;;1.17;0.43;;;;;;;;;;5063305;28;20427;-83
2022/05/24 11:34:37;;;;;;;1.67;0.43;;;;;;;;;;5033871;28;20387;-84
2022/05/24 11:37:04;;;;;;;2.08;0.60;;;;;;;;;;5036422;28;20765;-83
2022/05/24 11:39:32;;;;;;;0.93;0.50;;;;;;;;;;5070783;28;20412;-83
2022/05/24 11:42:24;;;;;;;1.70;0.60;;;;;;;;;;5059335;28;20768;-83
2022/05/24 11:44:52;;;;;;;1.77;0.63;;;;;;;;;;5029849;28;20417;-83
2022/05/24 11:47:39;;;;;;;3.25;0.47;;;;;;;;;;5038924;28;20389;-84
2022/05/24 11:50:06;;;;;;;1.75;0.50;;;;;;;;;;5038258;28;20379;-84
2022/05/24 11:52:46;;;;;;;3.00;0.82;;;;;;;;;;5024444;28;20907;-84
2022/05/24 11:55:32;;;;;;;1.58;0.40;;;;;;;;;;5040227;28;20460;-84
2022/05/24 11:58:05;;;;;;;1.50;0.50;;;;;;;;;;5037761;28;20387;-83
2022/05/24 12:00:32;;;;;;;1.70;0.50;;;;;;;;;;5032887;28;20433;-83
2022/05/24 12:08:39;;;;;;;1.97;0.50;;;;;;;;;;5045722;28;20750;-84
2022/05/24 12:11:04;;;;;;;1.08;0.45;;;;;;;;;;5045613;28;20381;-84
2022/05/24 12:13:54;;;;;;;0.93;0.40;;;;;;;;;;5034539;28;20857;-84
2022/05/24 12:16:34;;;;;;;2.10;0.50;;;;;;;;;;5060392;28;20382;-85
2022/05/24 12:19:03;;;;;;;2.05;0.80;;;;;;;;;;5059803;28;20386;-85
2022/05/24 12:21:38;;;;;;;1.15;0.50;;;;;;;;;;5055230;28;20419;-85
2022/05/24 12:24:24;;;;;;;1.50;0.65;;;;;;;;;;5043391;28;20400;-84
2022/05/24 12:27:08;;;;;;;0.80;0.50;;;;;;;;;;5021862;28;20958;-85
2022/05/24 12:29:35;;;;;;;1.50;0.60;;;;;;;;;;5032581;28;20765;-85
2022/05/24 12:32:04;;;;;;;2.67;0.90;;;;;;;;;;5067318;28;20859;-88
2022/05/24 12:34:32;;;;;;;1.40;0.80;;;;;;;;;;5036078;28;20781;-87
2022/05/24 12:36:59;;;;;;;5.53;0.70;;;;;;;;;;5051104;28;20424;-87
2022/05/24 12:39:26;;;;;;;0.90;0.65;;;;;;;;;;5054360;28;20391;-87
2022/05/24 12:41:56;;;;;;;1.80;0.50;;;;;;;;;;5022600;28;20530;-86
2022/05/24 12:44:25;;;;;;;1.63;0.60;;;;;;;;;;5040112;28;20505;-87
2022/05/24 12:46:53;;;;;;;1.20;0.70;;;;;;;;;;5035096;28;20784;-86
2022/05/24 12:49:20;;;;;;;1.67;0.52;;;;;;;;;;5037529;28;20458;-87
2022/05/24 12:51:47;;;;;;;1.60;0.43;;;;;;;;;;5035331;28;20387;-87
2022/05/24 12:54:15;;;;;;;2.50;0.67;;;;;;;;;;5039437;28;20411;-87
2022/05/24 12:56:52;;;;;;;1.40;0.63;;;;;;;;;;5038032;28;20462;-87
2022/05/24 12:59:18;;;;;;;1.40;0.60;;;;;;;;;;5041831;28;20918;-87
2022/05/24 13:01:44;;;;;;;1.85;0.60;;;;;;;;;;5038649;28;20500;-86
2022/05/24 13:04:13;;;;;;;2.10;0.50;;;;;;;;;;5048827;28;20868;-87
2022/05/24 13:06:40;;;;;;;1.70;0.60;;;;;;;;;;5040638;28;20890;-87
2022/05/24 13:09:12;;;;;;;1.48;0.63;;;;;;;;;;5039068;28;20856;-86
2022/05/24 13:11:38;;;;;;;1.63;0.80;;;;;;;;;;5036363;28;20375;-86
2022/05/24 13:14:05;;;;;;;1.83;0.30;;;;;;;;;;5025889;28;20395;-87
2022/05/24 13:16:32;;;;;;;1.10;0.50;;;;;;;;;;5038392;28;20391;-86
2022/05/24 13:18:58;;;;;;;1.00;0.52;;;;;;;;;;5038282;28;20384;-87
2022/05/24 13:21:25;;;;;;;2.15;0.93;;;;;;;;;;5034296;28;20465;-86
2022/05/24 13:24:07;;;;;;;1.83;0.60;;;;;;;;;;5052819;28;20454;-87
2022/05/24 13:26:33;;;;;;;1.27;0.80;;;;;;;;;;5074085;28;20872;-87
2022/05/24 13:29:19;;;;;;;1.30;0.60;;;;;;;;;;5058798;28;20386;-87
2022/05/24 13:34:32;;;;;;;1.73;0.40;;;;;;;;;;5053959;28;20376;-87
2022/05/24 13:37:00;;;;;;;0.95;0.40;;;;;;;;;;5066482;28;20383;-87
2022/05/24 13:39:28;;;;;;;1.60;0.30;;;;;;;;;;5073686;28;20388;-85
2022/05/24 13:42:01;;;;;;;2.10;0.50;;;;;;;;;;5062280;28;20415;-85
2022/05/24 13:44:29;;;;;;;1.10;0.55;;;;;;;;;;5068106;28;20451;-86
2022/05/24 13:46:57;;;;;;;3.13;0.90;;;;;;;;;;5064295;28;20368;-87
2022/05/24 13:49:29;;;;;;;1.20;0.50;;;;;;;;;;5073359;28;20380;-86
2022/05/24 13:52:11;;;;;;;2.08;0.57;;;;;;;;;;5055406;28;20749;-86
2022/05/24 13:54:37;;;;;;;2.28;0.90;;;;;;;;;;5073408;28;20387;-87
2022/05/24 13:57:03;;;;;;;0.60;0.50;;;;;;;;;;5066420;28;20398;-88
2022/05/24 13:59:29;;;;;;;1.90;0.57;;;;;;;;;;5059731;28;20872;-87
2022/05/24 14:01:57;;;;;;;1.60;0.60;;;;;;;;;;5055515;28;20411;-87
2022/05/24 14:04:26;;;;;;;1.85;0.47;;;;;;;;;;5073475;28;20384;-88
2022/05/24 14:06:57;;;;;;;1.83;0.40;;;;;;;;;;5072976;28;20376;-87
2022/05/24 14:09:23;;;;;;;0.95;0.43;;;;;;;;;;5067174;28;20453;-87
2022/05/24 14:11:52;;;;;;;0.50;0.32;;;;;;;;;;5072924;28;20454;-88
2022/05/24 14:14:19;;;;;;;1.33;0.50;;;;;;;;;;5073020;28;20383;-87
2022/05/24 14:16:45;;;;;;;1.65;0.50;;;;;;;;;;5073207;28;20404;-87
2022/05/24 14:19:12;;;;;;;1.80;0.45;;;;;;;;;;5073066;28;20899;-87
2022/05/24 14:21:40;;;;;;;1.33;0.60;;;;;;;;;;5072669;28;20434;-87
2022/05/24 14:24:12;;;;;;;1.37;0.40;;;;;;;;;;5072792;28;20388;-87
2022/05/24 14:26:38;;;;;;;1.60;0.80;;;;;;;;;;5073066;28;20806;-87
2022/05/24 14:29:04;;;;;;;1.15;0.68;;;;;;;;;;5065822;28;20386;-87
2022/05/24 14:31:30;;;;;;;1.13;0.57;;;;;;;;;;5069723;28;20460;-87
2022/05/24 14:33:56;;;;;;;1.20;0.43;;;;;;;;;;5047788;28;20446;-87
2022/05/24 14:36:22;;;;;;;0.82;0.50;;;;;;;;;;5072862;28;20729;-88
2022/05/24 14:38:48;;;;;;;1.85;0.90;;;;;;;;;;5072606;28;20383;-87
2022/05/24 14:41:17;;;;;;;2.65;1.98;;;;;;;;;;5072262;28;20529;-86
2022/05/24 14:43:48;;;;;;;1.73;0.80;;;;;;;;;;5044353;28;20377;-87
2022/05/24 14:46:14;;;;;;;4.95;1.92;;;;;;;;;;5042346;28;20798;-87
2022/05/24 14:48:40;;;;;;;2.78;1.00;;;;;;;;;;5061389;28;20409;-88
2022/05/24 14:51:07;;;;;;;1.35;0.75;;;;;;;;;;5031252;28;20413;-87
2022/05/24 14:53:33;;;;;;;2.20;0.80;;;;;;;;;;5061515;28;20863;-87
2022/05/24 14:55:59;;;;;;;2.97;1.10;;;;;;;;;;5068515;28;20383;-87
2022/05/24 14:58:26;;;;;;;1.67;0.70;;;;;;;;;;5072139;28;20384;-87
2022/05/24 15:00:52;;;;;;;1.48;0.85;;;;;;;;;;5053120;28;20393;-87
2022/05/24 15:03:20;;;;;;;1.27;0.93;;;;;;;;;;5063232;28;20444;-87
2022/05/24 15:05:46;;;;;;;2.50;0.82;;;;;;;;;;5052122;28;20786;-87
2022/05/24 15:16:27;;;;;;;1.40;0.75;;;;;;;;;;5060593;28;20530;-85